sensor_id;sensor_type;location;lat;lon;timestamp;pressure;altitude;pressure_sealevel;temperature;humidity
55010;BME280;40903;51.638;7.528;2023-08-31T00:02:17;100225.19;;;12.38;100.00
55010;BME280;40903;51.638;7.528;2023-08-31T00:04:44;100221.66;;;12.37;100.00
55010;BME280;40903;51.638;7.528;2023-08-31T00:07:09;100220.72;;;12.42;100.00
55010;BME280;40903;51.638;7.528;2023-08-31T00:09:34;100221.69;;;12.46;100.00
55010;BME280;40903;51.638;7.528;2023-08-31T00:12:03;100225.44;;;12.50;100.00
55010;BME280;40903;51.638;7.528;2023-08-31T00:14:28;100226.72;;;12.52;100.00
55010;BME280;40903;51.638;7.528;2023-08-31T00:16:54;100212.44;;;12.55;100.00
55010;BME280;40903;51.638;7.528;2023-08-31T00:19:22;100211.78;;;12.58;100.00
55010;BME280;40903;51.638;7.528;2023-08-31T00:21:48;100213.41;;;12.59;100.00
55010;BME280;40903;51.638;7.528;2023-08-31T00:24:14;100211.16;;;12.61;100.00
55010;BME280;40903;51.638;7.528;2023-08-31T00:26:39;100210.53;;;12.64;100.00
55010;BME280;40903;51.638;7.528;2023-08-31T00:29:09;100211.34;;;12.65;100.00
55010;BME280;40903;51.638;7.528;2023-08-31T00:31:36;100212.94;;;12.66;100.00
55010;BME280;40903;51.638;7.528;2023-08-31T00:34:02;100213.44;;;12.68;100.00
55010;BME280;40903;51.638;7.528;2023-08-31T00:36:32;100207.66;;;12.69;100.00
55010;BME280;40903;51.638;7.528;2023-08-31T00:39:02;100212.78;;;12.71;100.00
55010;BME280;40903;51.638;7.528;2023-08-31T00:41:31;100216.84;;;12.73;100.00
55010;BME280;40903;51.638;7.528;2023-08-31T00:43:57;100216.03;;;12.73;100.00
55010;BME280;40903;51.638;7.528;2023-08-31T00:46:22;100214.09;;;12.73;100.00
55010;BME280;40903;51.638;7.528;2023-08-31T00:48:47;100215.22;;;12.72;100.00
55010;BME280;40903;51.638;7.528;2023-08-31T00:51:13;100212.50;;;12.72;100.00
55010;BME280;40903;51.638;7.528;2023-08-31T00:53:39;100214.75;;;12.70;100.00
55010;BME280;40903;51.638;7.528;2023-08-31T00:56:05;100213.91;;;12.70;100.00
55010;BME280;40903;51.638;7.528;2023-08-31T00:58:30;100215.53;;;12.71;100.00
55010;BME280;40903;51.638;7.528;2023-08-31T01:03:49;100224.38;;;12.68;100.00
55010;BME280;40903;51.638;7.528;2023-08-31T01:06:27;100224.06;;;12.69;100.00
55010;BME280;40903;51.638;7.528;2023-08-31T01:11:58;100222.44;;;12.68;100.00
55010;BME280;40903;51.638;7.528;2023-08-31T01:14:27;100225.16;;;12.68;100.00
55010;BME280;40903;51.638;7.528;2023-08-31T01:16:58;100223.75;;;12.71;100.00
55010;BME280;40903;51.638;7.528;2023-08-31T01:19:40;100224.56;;;12.71;100.00
55010;BME280;40903;51.638;7.528;2023-08-31T01:22:21;100225.34;;;12.72;100.00
55010;BME280;40903;51.638;7.528;2023-08-31T01:24:50;100224.56;;;12.71;100.00
55010;BME280;40903;51.638;7.528;2023-08-31T01:27:16;100219.88;;;12.72;100.00
55010;BME280;40903;51.638;7.528;2023-08-31T01:29:42;100221.00;;;12.71;100.00
55010;BME280;40903;51.638;7.528;2023-08-31T01:32:07;100228.72;;;12.69;100.00
55010;BME280;40903;51.638;7.528;2023-08-31T01:34:33;100224.88;;;12.70;100.00
55010;BME280;40903;51.638;7.528;2023-08-31T01:37:05;100224.22;;;12.73;100.00
55010;BME280;40903;51.638;7.528;2023-08-31T01:39:39;100227.78;;;12.73;100.00
55010;BME280;40903;51.638;7.528;2023-08-31T01:42:09;100220.38;;;12.74;100.00
55010;BME280;40903;51.638;7.528;2023-08-31T01:44:37;100232.63;;;12.76;100.00
55010;BME280;40903;51.638;7.528;2023-08-31T01:47:05;100236.97;;;12.77;100.00
55010;BME280;40903;51.638;7.528;2023-08-31T01:49:39;100231.97;;;12.79;100.00
55010;BME280;40903;51.638;7.528;2023-08-31T01:52:06;100233.75;;;12.75;100.00
55010;BME280;40903;51.638;7.528;2023-08-31T01:54:32;100243.88;;;12.75;100.00
55010;BME280;40903;51.638;7.528;2023-08-31T01:56:58;100231.31;;;12.74;100.00
55010;BME280;40903;51.638;7.528;2023-08-31T01:59:24;100235.81;;;12.70;100.00
55010;BME280;40903;51.638;7.528;2023-08-31T02:01:49;100234.84;;;12.66;100.00
55010;BME280;40903;51.638;7.528;2023-08-31T02:04:14;100232.22;;;12.61;100.00
55010;BME280;40903;51.638;7.528;2023-08-31T02:06:40;100231.06;;;12.53;100.00
55010;BME280;40903;51.638;7.528;2023-08-31T02:09:06;100228.47;;;12.48;100.00
55010;BME280;40903;51.638;7.528;2023-08-31T02:11:31;100225.88;;;12.43;100.00
55010;BME280;40903;51.638;7.528;2023-08-31T02:13:58;100230.38;;;12.39;100.00
55010;BME280;40903;51.638;7.528;2023-08-31T02:16:23;100221.66;;;12.37;100.00
55010;BME280;40903;51.638;7.528;2023-08-31T02:18:49;100230.19;;;12.36;100.00
55010;BME280;40903;51.638;7.528;2023-08-31T02:21:14;100230.00;;;12.32;100.00
55010;BME280;40903;51.638;7.528;2023-08-31T02:23:40;100235.16;;;12.34;100.00
55010;BME280;40903;51.638;7.528;2023-08-31T02:26:05;100237.25;;;12.37;100.00
55010;BME280;40903;51.638;7.528;2023-08-31T02:28:30;100230.97;;;12.36;100.00
55010;BME280;40903;51.638;7.528;2023-08-31T02:31:01;100244.16;;;12.34;100.00
55010;BME280;40903;51.638;7.528;2023-08-31T02:33:27;100233.84;;;12.31;100.00
55010;BME280;40903;51.638;7.528;2023-08-31T02:35:56;100234.78;;;12.27;100.00
55010;BME280;40903;51.638;7.528;2023-08-31T02:38:22;100228.63;;;12.21;100.00
55010;BME280;40903;51.638;7.528;2023-08-31T02:40:48;100238.09;;;12.15;100.00
55010;BME280;40903;51.638;7.528;2023-08-31T02:43:14;100245.31;;;12.11;100.00
55010;BME280;40903;51.638;7.528;2023-08-31T02:45:39;100250.38;;;12.04;100.00
55010;BME280;40903;51.638;7.528;2023-08-31T02:48:08;100254.06;;;12.00;100.00
55010;BME280;40903;51.638;7.528;2023-08-31T02:50:37;100252.28;;;11.95;100.00
55010;BME280;40903;51.638;7.528;2023-08-31T02:53:03;100250.13;;;11.92;100.00
55010;BME280;40903;51.638;7.528;2023-08-31T02:55:29;100244.81;;;11.87;100.00
55010;BME280;40903;51.638;7.528;2023-08-31T02:57:57;100243.50;;;11.85;100.00
55010;BME280;40903;51.638;7.528;2023-08-31T03:00:22;100235.91;;;11.82;100.00
55010;BME280;40903;51.638;7.528;2023-08-31T03:02:48;100239.78;;;11.81;100.00
55010;BME280;40903;51.638;7.528;2023-08-31T03:05:13;100235.72;;;11.78;100.00
55010;BME280;40903;51.638;7.528;2023-08-31T03:07:39;100239.41;;;11.74;100.00
55010;BME280;40903;51.638;7.528;2023-08-31T03:10:05;100237.59;;;11.70;100.00
55010;BME280;40903;51.638;7.528;2023-08-31T03:12:30;100237.09;;;11.68;100.00
55010;BME280;40903;51.638;7.528;2023-08-31T03:14:56;100241.53;;;11.64;100.00
55010;BME280;40903;51.638;7.528;2023-08-31T03:17:21;100241.06;;;11.62;100.00
55010;BME280;40903;51.638;7.528;2023-08-31T03:19:46;100232.69;;;11.58;100.00
55010;BME280;40903;51.638;7.528;2023-08-31T03:22:12;100242.25;;;11.56;100.00
55010;BME280;40903;51.638;7.528;2023-08-31T03:24:37;100238.72;;;11.55;100.00
55010;BME280;40903;51.638;7.528;2023-08-31T03:27:03;100249.13;;;11.53;100.00
55010;BME280;40903;51.638;7.528;2023-08-31T03:29:28;100256.03;;;11.51;100.00
55010;BME280;40903;51.638;7.528;2023-08-31T03:31:54;100252.19;;;11.52;100.00
55010;BME280;40903;51.638;7.528;2023-08-31T03:34:20;100254.09;;;11.51;100.00
55010;BME280;40903;51.638;7.528;2023-08-31T03:36:46;100262.28;;;11.51;100.00
55010;BME280;40903;51.638;7.528;2023-08-31T03:39:11;100254.09;;;11.51;100.00
55010;BME280;40903;51.638;7.528;2023-08-31T03:41:36;100252.19;;;11.52;100.00
55010;BME280;40903;51.638;7.528;2023-08-31T03:44:02;100251.69;;;11.50;100.00
55010;BME280;40903;51.638;7.528;2023-08-31T03:46:28;100254.44;;;11.50;100.00
55010;BME280;40903;51.638;7.528;2023-08-31T03:48:53;100254.09;;;11.51;100.00
55010;BME280;40903;51.638;7.528;2023-08-31T03:51:19;100247.84;;;11.51;100.00
55010;BME280;40903;51.638;7.528;2023-08-31T03:53:44;100253.81;;;11.53;100.00
55010;BME280;40903;51.638;7.528;2023-08-31T03:56:10;100257.81;;;11.55;100.00
55010;BME280;40903;51.638;7.528;2023-08-31T03:58:38;100257.03;;;11.55;100.00
55010;BME280;40903;51.638;7.528;2023-08-31T04:01:04;100249.38;;;11.57;100.00
55010;BME280;40903;51.638;7.528;2023-08-31T04:03:30;100259.47;;;11.56;100.00
55010;BME280;40903;51.638;7.528;2023-08-31T04:05:56;100265.75;;;11.57;100.00
55010;BME280;40903;51.638;7.528;2023-08-31T04:08:21;100269.81;;;11.59;100.00
55010;BME280;40903;51.638;7.528;2023-08-31T04:10:47;100266.75;;;11.61;100.00
55010;BME280;40903;51.638;7.528;2023-08-31T04:13:12;100276.06;;;11.60;100.00
55010;BME280;40903;51.638;7.528;2023-08-31T04:15:37;100277.38;;;11.62;100.00
55010;BME280;40903;51.638;7.528;2023-08-31T04:18:03;100277.66;;;11.61;100.00
55010;BME280;40903;51.638;7.528;2023-08-31T04:20:29;100285.88;;;11.61;100.00
55010;BME280;40903;51.638;7.528;2023-08-31T04:22:54;100290.22;;;11.62;100.00
55010;BME280;40903;51.638;7.528;2023-08-31T04:25:19;100282.00;;;11.62;100.00
55010;BME280;40903;51.638;7.528;2023-08-31T04:27:45;100280.09;;;11.62;100.00
55010;BME280;40903;51.638;7.528;2023-08-31T04:30:11;100289.09;;;11.63;100.00
55010;BME280;40903;51.638;7.528;2023-08-31T04:32:37;100284.94;;;11.65;100.00
55010;BME280;40903;51.638;7.528;2023-08-31T04:35:03;100278.69;;;11.65;100.00
55010;BME280;40903;51.638;7.528;2023-08-31T04:37:32;100276.75;;;11.65;100.00
55010;BME280;40903;51.638;7.528;2023-08-31T04:39:57;100281.59;;;11.68;100.00
55010;BME280;40903;51.638;7.528;2023-08-31T04:42:23;100281.91;;;11.67;100.00
55010;BME280;40903;51.638;7.528;2023-08-31T04:44:49;100285.16;;;11.69;100.00
55010;BME280;40903;51.638;7.528;2023-08-31T04:47:15;100282.91;;;11.71;100.00
55010;BME280;40903;51.638;7.528;2023-08-31T04:49:40;100285.63;;;11.71;100.00
55010;BME280;40903;51.638;7.528;2023-08-31T04:52:06;100281.59;;;11.68;100.00
55010;BME280;40903;51.638;7.528;2023-08-31T04:54:31;100285.16;;;11.69;100.00
55010;BME280;40903;51.638;7.528;2023-08-31T04:56:57;100292.22;;;11.70;100.00
55010;BME280;40903;51.638;7.528;2023-08-31T04:59:24;100295.31;;;11.76;100.00
55010;BME280;40903;51.638;7.528;2023-08-31T05:01:50;100293.72;;;11.75;100.00
55010;BME280;40903;51.638;7.528;2023-08-31T05:04:15;100304.97;;;11.74;100.00
55010;BME280;40903;51.638;7.528;2023-08-31T05:06:40;100312.81;;;11.75;100.00
55010;BME280;40903;51.638;7.528;2023-08-31T05:09:06;100316.06;;;11.77;100.00
55010;BME280;40903;51.638;7.528;2023-08-31T05:11:31;100313.84;;;11.79;100.00
55010;BME280;40903;51.638;7.528;2023-08-31T05:13:57;100326.06;;;11.82;100.00
55010;BME280;40903;51.638;7.528;2023-08-31T05:16:22;100325.78;;;11.83;100.00
55010;BME280;40903;51.638;7.528;2023-08-31T05:18:49;100329.78;;;11.86;100.00
55010;BME280;40903;51.638;7.528;2023-08-31T05:21:14;100335.25;;;11.86;100.00
55010;BME280;40903;51.638;7.528;2023-08-31T05:23:40;100332.22;;;11.87;100.00
55010;BME280;40903;51.638;7.528;2023-08-31T05:26:06;100336.09;;;11.86;100.00
55010;BME280;40903;51.638;7.528;2023-08-31T05:28:31;100331.72;;;11.85;100.00
55010;BME280;40903;51.638;7.528;2023-08-31T05:30:57;100337.41;;;11.89;100.00
55010;BME280;40903;51.638;7.528;2023-08-31T05:33:23;100338.19;;;11.89;100.00
55010;BME280;40903;51.638;7.528;2023-08-31T05:35:50;100340.31;;;11.92;100.00
55010;BME280;40903;51.638;7.528;2023-08-31T05:38:16;100337.28;;;11.94;100.00
55010;BME280;40903;51.638;7.528;2023-08-31T05:40:41;100340.69;;;11.99;100.00
55010;BME280;40903;51.638;7.528;2023-08-31T05:43:16;100349.25;;;12.06;100.00
55010;BME280;40903;51.638;7.528;2023-08-31T05:45:41;100348.34;;;12.11;100.00
55010;BME280;40903;51.638;7.528;2023-08-31T05:48:07;100344.41;;;12.17;100.00
55010;BME280;40903;51.638;7.528;2023-08-31T05:50:33;100352.66;;;12.25;100.00
55010;BME280;40903;51.638;7.528;2023-08-31T05:52:58;100355.25;;;12.30;100.00
55010;BME280;40903;51.638;7.528;2023-08-31T05:55:23;100352.53;;;12.30;100.00
55010;BME280;40903;51.638;7.528;2023-08-31T05:57:49;100361.41;;;12.36;100.00
55010;BME280;40903;51.638;7.528;2023-08-31T06:00:15;100362.41;;;12.40;100.00
55010;BME280;40903;51.638;7.528;2023-08-31T06:02:42;100375.66;;;12.46;100.00
55010;BME280;40903;51.638;7.528;2023-08-31T06:05:10;100369.69;;;12.44;100.00
55010;BME280;40903;51.638;7.528;2023-08-31T06:07:37;100380.50;;;12.49;100.00
55010;BME280;40903;51.638;7.528;2023-08-31T06:10:04;100365.59;;;12.55;100.00
55010;BME280;40903;51.638;7.528;2023-08-31T06:12:30;100371.41;;;12.62;100.00
55010;BME280;40903;51.638;7.528;2023-08-31T06:14:55;100377.72;;;12.63;100.00
55010;BME280;40903;51.638;7.528;2023-08-31T06:17:24;100379.19;;;12.69;100.00
55010;BME280;40903;51.638;7.528;2023-08-31T06:19:49;100376.81;;;12.76;100.00
55010;BME280;40903;51.638;7.528;2023-08-31T06:22:15;100373.97;;;12.81;100.00
55010;BME280;40903;51.638;7.528;2023-08-31T06:24:40;100373.88;;;12.94;100.00
55010;BME280;40903;51.638;7.528;2023-08-31T06:27:07;100376.72;;;13.11;100.00
55010;BME280;40903;51.638;7.528;2023-08-31T06:29:32;100376.19;;;13.31;100.00
55010;BME280;40903;51.638;7.528;2023-08-31T06:31:58;100370.41;;;13.50;100.00
55010;BME280;40903;51.638;7.528;2023-08-31T06:34:24;100375.47;;;13.65;100.00
55010;BME280;40903;51.638;7.528;2023-08-31T06:36:49;100372.91;;;13.68;100.00
55010;BME280;40903;51.638;7.528;2023-08-31T06:39:15;100372.59;;;13.78;100.00
55010;BME280;40903;51.638;7.528;2023-08-31T06:41:41;100366.19;;;13.91;100.00
55010;BME280;40903;51.638;7.528;2023-08-31T06:44:06;100368.59;;;14.01;100.00
55010;BME280;40903;51.638;7.528;2023-08-31T06:46:31;100367.81;;;14.09;100.00
55010;BME280;40903;51.638;7.528;2023-08-31T06:49:03;100368.63;;;14.18;100.00
55010;BME280;40903;51.638;7.528;2023-08-31T06:51:30;100371.06;;;14.28;100.00
55010;BME280;40903;51.638;7.528;2023-08-31T06:53:55;100375.59;;;14.32;100.00
55010;BME280;40903;51.638;7.528;2023-08-31T06:56:21;100377.19;;;14.25;100.00
55010;BME280;40903;51.638;7.528;2023-08-31T06:58:46;100380.91;;;14.29;100.00
55010;BME280;40903;51.638;7.528;2023-08-31T07:01:12;100382.22;;;14.31;100.00
55010;BME280;40903;51.638;7.528;2023-08-31T07:03:38;100383.16;;;14.35;100.00
55010;BME280;40903;51.638;7.528;2023-08-31T07:06:03;100391.22;;;14.40;100.00
55010;BME280;40903;51.638;7.528;2023-08-31T07:08:29;100390.13;;;14.50;100.00
55010;BME280;40903;51.638;7.528;2023-08-31T07:10:55;100384.75;;;14.53;100.00
55010;BME280;40903;51.638;7.528;2023-08-31T07:13:20;100393.47;;;14.55;100.00
55010;BME280;40903;51.638;7.528;2023-08-31T07:15:46;100390.41;;;14.57;100.00
55010;BME280;40903;51.638;7.528;2023-08-31T07:18:16;100393.31;;;14.69;100.00
55010;BME280;40903;51.638;7.528;2023-08-31T07:20:41;100391.84;;;14.80;100.00
55010;BME280;40903;51.638;7.528;2023-08-31T07:23:07;100384.84;;;14.99;100.00
55010;BME280;40903;51.638;7.528;2023-08-31T07:25:32;100387.41;;;15.13;100.00
55010;BME280;40903;51.638;7.528;2023-08-31T07:27:57;100387.19;;;15.26;100.00
55010;BME280;40903;51.638;7.528;2023-08-31T07:30:23;100391.84;;;15.43;100.00
55010;BME280;40903;51.638;7.528;2023-08-31T07:32:48;100379.28;;;15.62;100.00
55010;BME280;40903;51.638;7.528;2023-08-31T07:35:13;100379.31;;;15.82;100.00
55010;BME280;40903;51.638;7.528;2023-08-31T07:37:39;100380.50;;;16.02;100.00
55010;BME280;40903;51.638;7.528;2023-08-31T07:40:05;100389.16;;;16.12;100.00
55010;BME280;40903;51.638;7.528;2023-08-31T07:42:35;100391.53;;;16.22;100.00
55010;BME280;40903;51.638;7.528;2023-08-31T07:45:00;100389.03;;;16.29;100.00
55010;BME280;40903;51.638;7.528;2023-08-31T07:47:26;100402.59;;;16.34;100.00
55010;BME280;40903;51.638;7.528;2023-08-31T07:49:51;100405.84;;;16.57;100.00
55010;BME280;40903;51.638;7.528;2023-08-31T07:52:16;100407.00;;;16.56;100.00
55010;BME280;40903;51.638;7.528;2023-08-31T07:54:42;100403.28;;;16.52;100.00
55010;BME280;40903;51.638;7.528;2023-08-31T07:57:07;100419.22;;;16.46;100.00
55010;BME280;40903;51.638;7.528;2023-08-31T07:59:33;100429.72;;;16.24;100.00
55010;BME280;40903;51.638;7.528;2023-08-31T08:01:58;100422.69;;;16.06;100.00
55010;BME280;40903;51.638;7.528;2023-08-31T08:04:23;100418.97;;;15.81;100.00
55010;BME280;40903;51.638;7.528;2023-08-31T08:06:54;100415.31;;;15.69;100.00
55010;BME280;40903;51.638;7.528;2023-08-31T08:09:22;100420.22;;;15.55;100.00
55010;BME280;40903;51.638;7.528;2023-08-31T08:11:48;100424.94;;;15.46;100.00
55010;BME280;40903;51.638;7.528;2023-08-31T08:14:13;100429.47;;;15.51;100.00
55010;BME280;40903;51.638;7.528;2023-08-31T08:16:41;100431.84;;;15.61;100.00
55010;BME280;40903;51.638;7.528;2023-08-31T08:19:07;100427.88;;;15.78;100.00
55010;BME280;40903;51.638;7.528;2023-08-31T08:21:33;100431.56;;;15.82;100.00
55010;BME280;40903;51.638;7.528;2023-08-31T08:23:59;100428.69;;;15.79;100.00
55010;BME280;40903;51.638;7.528;2023-08-31T08:26:25;100438.03;;;15.86;100.00
55010;BME280;40903;51.638;7.528;2023-08-31T08:28:53;100434.78;;;15.93;100.00
55010;BME280;40903;51.638;7.528;2023-08-31T08:31:18;100431.66;;;15.94;100.00
55010;BME280;40903;51.638;7.528;2023-08-31T08:33:44;100440.41;;;15.96;100.00
55010;BME280;40903;51.638;7.528;2023-08-31T08:36:09;100431.53;;;15.91;100.00
55010;BME280;40903;51.638;7.528;2023-08-31T08:38:35;100438.00;;;15.95;100.00
55010;BME280;40903;51.638;7.528;2023-08-31T08:41:05;100437.47;;;16.01;100.00
55010;BME280;40903;51.638;7.528;2023-08-31T08:43:33;100435.44;;;16.10;100.00
55010;BME280;40903;51.638;7.528;2023-08-31T08:46:04;100446.53;;;16.22;100.00
55010;BME280;40903;51.638;7.528;2023-08-31T08:48:34;100442.94;;;16.30;100.00
55010;BME280;40903;51.638;7.528;2023-08-31T08:51:04;100441.56;;;16.45;100.00
55010;BME280;40903;51.638;7.528;2023-08-31T08:53:30;100447.06;;;16.45;100.00
55010;BME280;40903;51.638;7.528;2023-08-31T08:55:56;100441.97;;;16.55;100.00
55010;BME280;40903;51.638;7.528;2023-08-31T08:58:22;100442.78;;;16.56;100.00
55010;BME280;40903;51.638;7.528;2023-08-31T09:00:48;100442.94;;;16.71;100.00
55010;BME280;40903;51.638;7.528;2023-08-31T09:03:15;100443.84;;;16.84;100.00
55010;BME280;40903;51.638;7.528;2023-08-31T09:05:42;100446.69;;;16.87;100.00
55010;BME280;40903;51.638;7.528;2023-08-31T09:08:09;100445.81;;;16.95;100.00
55010;BME280;40903;51.638;7.528;2023-08-31T09:10:40;100451.31;;;16.95;100.00
55010;BME280;40903;51.638;7.528;2023-08-31T09:13:13;100447.00;;;17.06;100.00
55010;BME280;40903;51.638;7.528;2023-08-31T09:15:48;100453.59;;;17.14;100.00
55010;BME280;40903;51.638;7.528;2023-08-31T09:20:48;100450.28;;;17.32;100.00
55010;BME280;40903;51.638;7.528;2023-08-31T09:23:14;100451.25;;;17.36;100.00
55010;BME280;40903;51.638;7.528;2023-08-31T09:25:42;100453.00;;;17.53;100.00
55010;BME280;40903;51.638;7.528;2023-08-31T09:28:09;100452.00;;;17.69;100.00
55010;BME280;40903;51.638;7.528;2023-08-31T09:30:37;100445.69;;;17.92;100.00
55010;BME280;40903;51.638;7.528;2023-08-31T09:33:04;100450.38;;;18.04;100.00
55010;BME280;40903;51.638;7.528;2023-08-31T09:35:30;100445.88;;;18.11;100.00
55010;BME280;40903;51.638;7.528;2023-08-31T09:37:57;100451.72;;;18.22;100.00
55010;BME280;40903;51.638;7.528;2023-08-31T09:40:22;100454.50;;;18.10;96.51
55010;BME280;40903;51.638;7.528;2023-08-31T09:42:51;100451.41;;;18.11;100.00
55010;BME280;40903;51.638;7.528;2023-08-31T09:45:18;100446.22;;;18.10;100.00
55010;BME280;40903;51.638;7.528;2023-08-31T09:47:52;100441.28;;;18.15;100.00
55010;BME280;40903;51.638;7.528;2023-08-31T09:50:21;100443.81;;;18.20;100.00
55010;BME280;40903;51.638;7.528;2023-08-31T09:52:50;100437.47;;;18.20;100.00
55010;BME280;40903;51.638;7.528;2023-08-31T09:55:20;100440.59;;;18.18;100.00
55010;BME280;40903;51.638;7.528;2023-08-31T09:57:48;100448.75;;;18.15;100.00
55010;BME280;40903;51.638;7.528;2023-08-31T10:00:13;100451.06;;;18.01;99.12
55010;BME280;40903;51.638;7.528;2023-08-31T10:02:44;100450.28;;;17.88;97.59
55010;BME280;40903;51.638;7.528;2023-08-31T10:05:13;100454.84;;;17.84;98.69
55010;BME280;40903;51.638;7.528;2023-08-31T10:07:43;100475.44;;;17.75;99.46
55010;BME280;40903;51.638;7.528;2023-08-31T10:10:09;100471.03;;;17.62;99.65
55010;BME280;40903;51.638;7.528;2023-08-31T10:12:35;100479.38;;;17.42;100.00
55010;BME280;40903;51.638;7.528;2023-08-31T10:15:01;100472.56;;;17.27;100.00
55010;BME280;40903;51.638;7.528;2023-08-31T10:17:28;100470.56;;;17.16;100.00
55010;BME280;40903;51.638;7.528;2023-08-31T10:19:55;100485.22;;;17.08;100.00
55010;BME280;40903;51.638;7.528;2023-08-31T10:22:20;100474.16;;;16.96;100.00
55010;BME280;40903;51.638;7.528;2023-08-31T10:25:02;100477.00;;;16.87;100.00
55010;BME280;40903;51.638;7.528;2023-08-31T10:27:42;100481.44;;;16.80;100.00
55010;BME280;40903;51.638;7.528;2023-08-31T10:35:51;100493.13;;;16.77;100.00
55010;BME280;40903;51.638;7.528;2023-08-31T10:38:29;100496.47;;;16.82;100.00
55010;BME280;40903;51.638;7.528;2023-08-31T10:43:26;100496.03;;;16.80;100.00
55010;BME280;40903;51.638;7.528;2023-08-31T10:45:51;100499.59;;;16.60;100.00
55010;BME280;40903;51.638;7.528;2023-08-31T10:48:17;100488.03;;;16.46;100.00
55010;BME280;40903;51.638;7.528;2023-08-31T10:50:45;100492.31;;;16.35;100.00
55010;BME280;40903;51.638;7.528;2023-08-31T10:53:12;100484.13;;;16.18;100.00
55010;BME280;40903;51.638;7.528;2023-08-31T10:55:51;100495.69;;;16.03;100.00
55010;BME280;40903;51.638;7.528;2023-08-31T10:58:17;100483.97;;;15.86;100.00
55010;BME280;40903;51.638;7.528;2023-08-31T11:00:55;100486.03;;;15.89;100.00
55010;BME280;40903;51.638;7.528;2023-08-31T11:03:22;100485.88;;;15.94;100.00
55010;BME280;40903;51.638;7.528;2023-08-31T11:05:53;100477.13;;;16.00;100.00
55010;BME280;40903;51.638;7.528;2023-08-31T11:08:23;100493.41;;;16.05;100.00
55010;BME280;40903;51.638;7.528;2023-08-31T11:10:49;100493.91;;;16.07;100.00
55010;BME280;40903;51.638;7.528;2023-08-31T11:13:19;100492.75;;;16.08;100.00
55010;BME280;40903;51.638;7.528;2023-08-31T11:15:46;100498.25;;;16.08;100.00
55010;BME280;40903;51.638;7.528;2023-08-31T11:18:14;100498.41;;;16.12;100.00
55010;BME280;40903;51.638;7.528;2023-08-31T11:20:43;100493.06;;;16.15;100.00
55010;BME280;40903;51.638;7.528;2023-08-31T11:23:09;100494.66;;;16.16;100.00
55010;BME280;40903;51.638;7.528;2023-08-31T11:25:35;100483.78;;;16.20;100.00
55010;BME280;40903;51.638;7.528;2023-08-31T11:28:02;100475.97;;;16.30;100.00
55010;BME280;40903;51.638;7.528;2023-08-31T11:30:30;100482.38;;;16.63;100.00
55010;BME280;40903;51.638;7.528;2023-08-31T11:33:03;100479.81;;;16.99;100.00
55010;BME280;40903;51.638;7.528;2023-08-31T11:35:37;100474.38;;;17.23;100.00
55010;BME280;40903;51.638;7.528;2023-08-31T11:38:03;100472.69;;;17.31;100.00
55010;BME280;40903;51.638;7.528;2023-08-31T11:40:29;100469.63;;;17.44;100.00
55010;BME280;40903;51.638;7.528;2023-08-31T11:42:55;100463.56;;;17.51;100.00
55010;BME280;40903;51.638;7.528;2023-08-31T11:45:22;100470.25;;;17.62;100.00
55010;BME280;40903;51.638;7.528;2023-08-31T11:47:49;100473.94;;;17.78;100.00
55010;BME280;40903;51.638;7.528;2023-08-31T11:50:16;100457.75;;;17.88;100.00
55010;BME280;40903;51.638;7.528;2023-08-31T11:52:42;100459.09;;;17.94;100.00
55010;BME280;40903;51.638;7.528;2023-08-31T11:55:12;100460.84;;;17.98;100.00
55010;BME280;40903;51.638;7.528;2023-08-31T11:57:38;100449.69;;;18.07;100.00
55010;BME280;40903;51.638;7.528;2023-08-31T12:00:04;100455.88;;;18.40;100.00
55010;BME280;40903;51.638;7.528;2023-08-31T12:02:36;100447.94;;;18.78;100.00
55010;BME280;40903;51.638;7.528;2023-08-31T12:05:02;100447.34;;;19.12;100.00
55010;BME280;40903;51.638;7.528;2023-08-31T12:07:27;100443.31;;;19.37;100.00
55010;BME280;40903;51.638;7.528;2023-08-31T12:09:53;100442.06;;;19.65;100.00
55010;BME280;40903;51.638;7.528;2023-08-31T12:12:23;100436.00;;;19.91;100.00
55010;BME280;40903;51.638;7.528;2023-08-31T12:14:52;100438.50;;;20.11;100.00
55010;BME280;40903;51.638;7.528;2023-08-31T12:17:18;100438.47;;;20.26;100.00
55010;BME280;40903;51.638;7.528;2023-08-31T12:19:47;100433.34;;;20.44;100.00
55010;BME280;40903;51.638;7.528;2023-08-31T12:22:12;100431.66;;;20.39;97.76
55010;BME280;40903;51.638;7.528;2023-08-31T12:24:41;100423.84;;;20.45;94.64
55010;BME280;40903;51.638;7.528;2023-08-31T12:27:09;100431.38;;;20.63;96.05
55010;BME280;40903;51.638;7.528;2023-08-31T12:29:36;100429.78;;;20.81;92.40
55010;BME280;40903;51.638;7.528;2023-08-31T12:32:02;100430.97;;;20.99;93.51
55010;BME280;40903;51.638;7.528;2023-08-31T12:34:29;100431.31;;;20.98;85.50
55010;BME280;40903;51.638;7.528;2023-08-31T12:36:56;100431.97;;;20.91;89.28
55010;BME280;40903;51.638;7.528;2023-08-31T12:39:25;100439.25;;;20.80;90.95
55010;BME280;40903;51.638;7.528;2023-08-31T12:41:51;100436.66;;;20.87;93.28
55010;BME280;40903;51.638;7.528;2023-08-31T12:44:16;100433.34;;;20.82;88.50
55010;BME280;40903;51.638;7.528;2023-08-31T12:46:41;100442.19;;;20.68;81.65
55010;BME280;40903;51.638;7.528;2023-08-31T12:49:07;100429.72;;;20.78;84.36
55010;BME280;40903;51.638;7.528;2023-08-31T12:51:33;100434.00;;;20.75;79.55
55010;BME280;40903;51.638;7.528;2023-08-31T12:53:58;100444.44;;;20.63;75.79
55010;BME280;40903;51.638;7.528;2023-08-31T12:56:24;100439.09;;;20.54;81.99